createdAt,value
2019-02-02T00:00:22.023Z,99198.16
2019-02-02T00:02:49.238Z,99195.22
2019-02-02T00:05:16.290Z,99192.33
2019-02-02T00:07:43.387Z,99197.62
2019-02-02T00:10:16.497Z,99198.15
2019-02-02T00:12:43.591Z,99192.20
2019-02-02T00:15:17.048Z,99188.14
2019-02-02T00:17:44.091Z,99194.41
2019-02-02T00:20:11.468Z,99202.34
2019-02-02T00:22:38.571Z,99206.22
2019-02-02T00:25:06.127Z,99197.53
2019-02-02T00:27:41.084Z,99203.99
2019-02-02T00:30:03.401Z,99206.34
2019-02-02T00:32:30.555Z,99206.03
2019-02-02T00:34:57.674Z,99213.38
2019-02-02T00:37:24.809Z,99217.27
2019-02-02T00:39:51.895Z,99215.09
2019-02-02T00:42:18.963Z,99210.80
2019-02-02T00:44:46.167Z,99200.09
2019-02-02T00:47:13.324Z,99204.19
2019-02-02T00:49:40.390Z,99201.41
2019-02-02T00:52:07.742Z,99205.55
2019-02-02T00:54:34.884Z,99202.14
2019-02-02T00:57:01.950Z,99210.73
2019-02-02T00:59:29.066Z,99211.67
2019-02-02T01:01:56.593Z,99209.55
2019-02-02T01:04:23.671Z,99207.42
2019-02-02T01:06:50.789Z,99213.12
2019-02-02T01:09:24.463Z,99220.59
2019-02-02T01:11:51.637Z,99219.86
2019-02-02T01:14:18.971Z,99218.27
2019-02-02T01:17:28.224Z,99212.62
2019-02-02T01:19:55.312Z,99219.04
2019-02-02T01:22:22.379Z,99224.52
2019-02-02T01:24:49.476Z,99221.47
2019-02-02T01:27:16.563Z,99223.53
2019-02-02T01:29:43.610Z,99229.13
2019-02-02T01:32:13.802Z,99232.18
2019-02-02T01:34:39.801Z,99224.36
2019-02-02T01:37:06.852Z,99236.95
2019-02-02T01:39:33.935Z,99243.06
2019-02-02T01:42:01.271Z,99228.81
2019-02-02T01:44:28.317Z,99234.93
2019-02-02T01:46:55.437Z,99231.52
2019-02-02T01:49:22.510Z,99236.33
2019-02-02T01:51:49.599Z,99238.15
2019-02-02T01:54:16.687Z,99241.98
2019-02-02T01:56:43.741Z,99232.45
2019-02-02T01:59:10.837Z,99237.73
2019-02-02T02:01:38.212Z,99230.38
2019-02-02T02:04:05.363Z,99230.38
2019-02-02T02:06:32.434Z,99227.33
2019-02-02T02:08:59.622Z,99231.63
2019-02-02T02:11:26.700Z,99228.63
2019-02-02T02:13:53.811Z,99233.33
2019-02-02T02:16:21.890Z,99230.80
2019-02-02T02:18:49.013Z,99232.55
2019-02-02T02:21:31.456Z,99235.61
2019-02-02T02:23:58.543Z,99228.20
2019-02-02T02:26:25.590Z,99234.62
2019-02-02T02:28:52.633Z,99247.57
2019-02-02T02:31:19.865Z,99246.22
2019-02-02T02:33:46.905Z,99245.39
2019-02-02T02:36:14.195Z,99245.86
2019-02-02T02:38:42.992Z,99243.33
2019-02-02T02:41:10.108Z,99244.20
2019-02-02T02:43:37.113Z,99245.97
2019-02-02T02:46:04.533Z,99242.55
2019-02-02T02:48:31.569Z,99246.02
2019-02-02T02:50:58.638Z,99245.25
2019-02-02T02:53:25.708Z,99242.77
2019-02-02T02:55:52.778Z,99246.65
2019-02-02T02:58:19.967Z,99251.36
2019-02-02T03:00:47.038Z,99253.95
2019-02-02T03:03:14.101Z,99259.13
2019-02-02T03:05:41.256Z,99257.37
2019-02-02T03:08:08.458Z,99256.55
2019-02-02T03:10:35.498Z,99257.31
2019-02-02T03:13:02.948Z,99258.66
2019-02-02T03:15:30.030Z,99261.72
2019-02-02T03:17:57.075Z,99268.55
2019-02-02T03:20:24.135Z,99267.73
2019-02-02T03:22:51.232Z,99265.55
2019-02-02T03:25:20.265Z,99261.72
2019-02-02T03:27:47.338Z,99265.66
2019-02-02T03:30:16.113Z,99268.72
2019-02-02T03:32:43.177Z,99271.72
2019-02-02T03:35:11.166Z,99274.31
2019-02-02T03:37:38.480Z,99273.48
2019-02-02T03:40:08.532Z,99272.60
2019-02-02T03:42:35.590Z,99268.25
2019-02-02T03:45:02.799Z,99273.42
2019-02-02T03:47:29.850Z,99271.72
2019-02-02T03:49:56.911Z,99278.19
2019-02-02T03:52:24.248Z,99282.08
2019-02-02T03:54:51.301Z,99282.08
2019-02-02T03:57:18.340Z,99281.66
2019-02-02T03:59:45.409Z,99284.67
2019-02-02T04:02:12.500Z,99287.25
2019-02-02T04:04:39.559Z,99297.20
2019-02-02T04:07:06.641Z,99297.14
2019-02-02T04:09:33.699Z,99303.62
2019-02-02T04:12:00.859Z,99301.50
2019-02-02T04:14:27.983Z,99313.51
2019-02-02T04:16:55.350Z,99312.63
2019-02-02T04:19:22.417Z,99311.28
2019-02-02T04:21:49.507Z,99310.34
2019-02-02T04:24:16.570Z,99310.34
2019-02-02T04:26:43.736Z,99318.98
2019-02-02T04:29:17.656Z,99317.17
2019-02-02T04:31:40.067Z,99319.77
2019-02-02T04:34:07.226Z,99321.05
2019-02-02T04:36:34.365Z,99318.83
2019-02-02T04:39:01.410Z,99325.30
2019-02-02T04:41:28.449Z,99330.95
2019-02-02T04:43:55.536Z,99329.65
2019-02-02T04:46:22.584Z,99330.95
2019-02-02T04:48:49.647Z,99329.19
2019-02-02T04:51:16.743Z,99327.53
2019-02-02T04:53:43.790Z,99324.00
2019-02-02T04:56:10.895Z,99325.30
2019-02-02T04:58:40.774Z,99334.36
2019-02-02T05:01:07.841Z,99333.06
2019-02-02T05:03:35.141Z,99338.71
2019-02-02T05:06:02.194Z,99343.48
2019-02-02T05:08:29.239Z,99345.66
2019-02-02T05:10:56.324Z,99338.30
2019-02-02T05:13:23.391Z,99345.71
2019-02-02T05:15:50.394Z,99347.47
2019-02-02T05:18:17.501Z,99348.36
2019-02-02T05:20:44.566Z,99348.36
2019-02-02T05:23:11.606Z,99350.06
2019-02-02T05:25:38.687Z,99354.36
2019-02-02T05:28:05.797Z,99359.13
2019-02-02T05:30:32.849Z,99356.89
2019-02-02T05:32:59.910Z,99355.54
2019-02-02T05:35:26.985Z,99357.77
2019-02-02T05:37:54.654Z,99356.02
2019-02-02T05:40:21.735Z,99347.77
2019-02-02T05:42:49.010Z,99358.08
2019-02-02T05:45:17.762Z,99365.38
2019-02-02T05:47:44.816Z,99358.43
2019-02-02T05:50:13.825Z,99367.55
2019-02-02T05:52:40.874Z,99366.25
2019-02-02T05:55:09.417Z,99371.43
2019-02-02T05:57:36.502Z,99371.48
2019-02-02T06:00:06.900Z,99374.96
2019-02-02T06:02:33.932Z,99374.61
2019-02-02T06:05:01.231Z,99374.61
2019-02-02T06:07:28.278Z,99380.72
2019-02-02T06:09:55.327Z,99382.02
2019-02-02T06:12:22.409Z,99388.91
2019-02-02T06:14:51.005Z,99386.31
2019-02-02T06:17:18.037Z,99390.61
2019-02-02T06:19:45.190Z,99391.02
2019-02-02T06:22:12.246Z,99394.91
2019-02-02T06:24:39.298Z,99397.55
2019-02-02T06:27:06.411Z,99398.85
2019-02-02T06:29:33.484Z,99400.20
2019-02-02T06:32:10.988Z,99409.67
2019-02-02T06:34:29.758Z,99412.27
2019-02-02T06:36:56.855Z,99412.73
2019-02-02T06:39:23.928Z,99413.20
2019-02-02T06:41:51.065Z,99416.73
2019-02-02T06:44:18.416Z,99420.97
2019-02-02T06:46:45.457Z,99420.15
2019-02-02T06:49:12.703Z,99414.97
2019-02-02T06:51:39.872Z,99423.20
2019-02-02T06:54:06.925Z,99428.39
2019-02-02T06:56:34.016Z,99433.57
2019-02-02T06:59:01.220Z,99436.56
2019-02-02T07:01:28.331Z,99440.87
2019-02-02T07:03:55.442Z,99443.40
2019-02-02T07:06:22.520Z,99447.16
2019-02-02T07:08:49.563Z,99451.05
2019-02-02T07:11:16.678Z,99454.17
2019-02-02T07:13:43.729Z,99449.88
2019-02-02T07:16:10.845Z,99444.28
2019-02-02T07:18:37.940Z,99455.11
2019-02-02T07:21:04.997Z,99454.75
2019-02-02T07:23:32.075Z,99458.70
2019-02-02T07:25:59.174Z,99460.05
2019-02-02T07:28:27.352Z,99457.11
2019-02-02T07:30:54.412Z,99468.88
2019-02-02T07:33:22.883Z,99471.06
2019-02-02T07:35:49.958Z,99473.70
2019-02-02T07:38:17.016Z,99472.83
2019-02-02T07:40:44.087Z,99486.72
2019-02-02T07:43:11.172Z,99490.25
2019-02-02T07:45:38.483Z,99491.95
2019-02-02T07:48:05.652Z,99494.60
2019-02-02T07:50:32.726Z,99505.84
2019-02-02T07:53:00.037Z,99506.31
2019-02-02T07:55:27.056Z,99513.71
2019-02-02T07:57:54.441Z,99518.89
2019-02-02T08:00:40.168Z,99521.07
2019-02-02T08:02:58.771Z,99514.09
2019-02-02T08:05:26.008Z,99518.95
2019-02-02T08:07:53.125Z,99514.19
2019-02-02T08:10:20.598Z,99512.13
2019-02-02T08:12:48.176Z,99521.25
2019-02-02T08:15:20.726Z,99524.72
2019-02-02T08:17:48.184Z,99531.73
2019-02-02T08:20:15.481Z,99533.08
2019-02-02T08:22:42.827Z,99535.73
2019-02-02T08:25:11.394Z,99535.79
2019-02-02T08:27:38.481Z,99546.75
2019-02-02T08:30:12.510Z,99554.58
2019-02-02T08:32:39.596Z,99552.93
2019-02-02T08:36:16.076Z,99559.47
2019-02-02T08:38:49.757Z,99570.42
2019-02-02T08:41:16.811Z,99583.85
2019-02-02T08:43:43.964Z,99591.69
2019-02-02T08:46:12.681Z,99593.09
2019-02-02T08:48:39.751Z,99599.22
2019-02-02T08:51:16.594Z,99600.58
2019-02-02T08:53:43.654Z,99605.00
2019-02-02T08:56:10.790Z,99608.47
2019-02-02T08:58:38.069Z,99612.48
2019-02-02T09:01:05.168Z,99616.89
2019-02-02T09:03:32.319Z,99620.37
2019-02-02T09:05:59.472Z,99623.79
2019-02-02T09:08:26.927Z,99629.86
2019-02-02T09:11:01.188Z,99630.27
2019-02-02T09:13:28.288Z,99637.70
2019-02-02T09:15:55.547Z,99642.53
2019-02-02T09:18:24.002Z,99649.13
2019-02-02T09:20:51.085Z,99648.06
2019-02-02T09:23:18.253Z,99646.83
2019-02-02T09:25:45.353Z,99654.25
2019-02-02T09:28:12.487Z,99659.50
2019-02-02T09:30:39.883Z,99668.09
2019-02-02T09:33:07.521Z,99678.06
2019-02-02T09:35:34.604Z,99681.41
2019-02-02T09:38:01.896Z,99681.30
2019-02-02T09:40:29.086Z,99684.66
2019-02-02T09:42:56.163Z,99686.83
2019-02-02T09:45:23.720Z,99689.90
2019-02-02T09:47:51.150Z,99686.77
2019-02-02T09:50:20.551Z,99685.83
2019-02-02T09:52:47.763Z,99688.65
2019-02-02T09:55:16.669Z,99689.06
2019-02-02T09:57:43.831Z,99689.06
2019-02-02T10:00:19.682Z,99694.30
2019-02-02T10:02:46.874Z,99700.08
2019-02-02T10:05:14.072Z,99697.33
2019-02-02T10:07:41.229Z,99700.51
2019-02-02T10:10:12.918Z,99713.95
2019-02-02T10:12:45.400Z,99719.61
2019-02-02T10:15:12.916Z,99726.91
2019-02-02T10:17:39.951Z,99733.80
2019-02-02T10:20:09.150Z,99740.22
2019-02-02T10:22:36.248Z,99743.86
2019-02-02T10:25:05.203Z,99751.17
2019-02-02T10:27:32.309Z,99758.70
2019-02-02T10:29:59.476Z,99754.55
2019-02-02T10:32:26.605Z,99762.89
2019-02-02T10:34:53.757Z,99758.06
2019-02-02T10:37:20.827Z,99756.30
2019-02-02T10:39:48.403Z,99757.11
2019-02-02T10:42:17.322Z,99758.95
2019-02-02T10:44:44.387Z,99747.22
2019-02-02T10:47:11.595Z,99745.16
2019-02-02T10:49:38.644Z,99753.95
2019-02-02T10:52:05.776Z,99749.72
2019-02-02T10:54:35.084Z,99751.42
2019-02-02T10:57:02.108Z,99748.70
2019-02-02T10:59:29.296Z,99750.06
2019-02-02T11:01:56.408Z,99754.91
2019-02-02T11:04:23.500Z,99753.06
2019-02-02T11:06:50.586Z,99755.72
2019-02-02T11:09:17.918Z,99761.32
2019-02-02T11:11:45.112Z,99758.73
2019-02-02T11:14:12.300Z,99762.27
2019-02-02T11:16:39.765Z,99766.69
2019-02-02T11:19:06.935Z,99763.63
2019-02-02T11:21:34.389Z,99768.33
2019-02-02T11:24:01.527Z,99777.02
2019-02-02T11:26:28.595Z,99779.14
2019-02-02T11:28:55.772Z,99789.25
2019-02-02T11:31:22.853Z,99785.44
2019-02-02T11:33:50.008Z,99780.13
2019-02-02T11:36:17.106Z,99786.91
2019-02-02T11:38:46.473Z,99790.67
2019-02-02T11:41:13.595Z,99786.59
2019-02-02T11:43:40.711Z,99793.00
2019-02-02T11:46:07.837Z,99791.22
2019-02-02T11:48:36.280Z,99799.47
2019-02-02T11:51:03.337Z,99802.20
2019-02-02T11:53:30.500Z,99805.27
2019-02-02T11:55:57.630Z,99807.64
2019-02-02T11:58:24.699Z,99806.17
2019-02-02T12:00:51.832Z,99813.80
2019-02-02T12:03:19.007Z,99816.99
2019-02-02T12:05:46.101Z,99821.55
2019-02-02T12:08:13.189Z,99820.11
2019-02-02T12:10:40.312Z,99822.01
2019-02-02T12:13:07.411Z,99828.75
2019-02-02T12:15:34.488Z,99830.17
2019-02-02T12:18:01.811Z,99839.44
2019-02-02T12:20:29.088Z,99840.45
2019-02-02T12:22:56.181Z,99847.95
2019-02-02T12:25:23.508Z,99851.97
2019-02-02T12:27:50.564Z,99857.75
2019-02-02T12:30:20.060Z,99865.19
2019-02-02T12:32:47.193Z,99860.48
2019-02-02T12:35:16.669Z,99870.56
2019-02-02T12:37:43.716Z,99874.11
2019-02-02T12:40:11.731Z,99871.11
2019-02-02T12:42:38.969Z,99882.44
2019-02-02T12:45:09.719Z,99882.84
2019-02-02T12:47:36.823Z,99877.66
2019-02-02T12:50:04.833Z,99885.38
2019-02-02T12:52:31.972Z,99880.31
2019-02-02T12:54:59.101Z,99881.07
2019-02-02T12:57:26.456Z,99888.44
2019-02-02T12:59:53.772Z,99892.20
2019-02-02T13:02:20.856Z,99887.02
2019-02-02T13:04:47.912Z,99895.62
2019-02-02T13:07:15.025Z,99899.85
2019-02-02T13:09:42.131Z,99900.73
2019-02-02T13:12:09.219Z,99898.43
2019-02-02T13:14:36.406Z,99904.09
2019-02-02T13:17:03.707Z,99913.64
2019-02-02T13:19:30.920Z,99921.08
2019-02-02T13:21:57.985Z,99925.37
2019-02-02T13:24:25.094Z,99935.69
2019-02-02T13:26:52.146Z,99942.77
2019-02-02T13:29:19.291Z,99946.13
2019-02-02T13:31:46.359Z,99950.08
2019-02-02T13:34:13.479Z,99954.38
2019-02-02T13:36:40.605Z,99954.45
2019-02-02T13:39:10.574Z,99960.86
2019-02-02T13:41:37.782Z,99964.56
2019-02-02T13:44:04.894Z,99971.73
2019-02-02T13:46:33.864Z,99970.77
2019-02-02T13:49:00.935Z,99975.00
2019-02-02T13:51:28.071Z,99978.34
2019-02-02T13:53:55.158Z,99981.76
2019-02-02T13:56:22.348Z,99989.47
2019-02-02T13:58:49.474Z,99994.93
2019-02-02T14:01:16.561Z,99993.97
2019-02-02T14:03:43.673Z,99997.31
2019-02-02T14:06:10.799Z,100008.44
2019-02-02T14:08:37.859Z,100012.39
2019-02-02T14:11:05.014Z,100021.33
2019-02-02T14:13:33.182Z,100023.37
2019-02-02T14:16:00.233Z,100020.64
2019-02-02T14:18:27.439Z,100028.01
2019-02-02T14:20:54.643Z,100034.83
2019-02-02T14:23:21.705Z,100039.05
2019-02-02T14:25:48.746Z,100042.80
2019-02-02T14:28:27.590Z,100051.88
2019-02-02T14:30:44.861Z,100050.91
2019-02-02T14:33:14.200Z,100057.39
2019-02-02T14:35:41.107Z,100065.44
2019-02-02T14:38:08.382Z,100068.36
2019-02-02T14:40:35.472Z,100072.99
2019-02-02T14:43:02.833Z,100073.25
2019-02-02T14:45:30.007Z,100077.55
2019-02-02T14:47:57.390Z,100076.59
2019-02-02T14:50:24.522Z,100085.51
2019-02-02T14:52:55.016Z,100086.14
2019-02-02T14:55:26.757Z,100093.70
2019-02-02T14:57:54.237Z,100097.36
2019-02-02T15:00:23.550Z,100099.17
2019-02-02T15:02:50.700Z,100103.39
2019-02-02T15:05:20.243Z,100111.34
2019-02-02T15:07:48.655Z,100107.64
2019-02-02T15:10:16.769Z,100113.55
2019-02-02T15:12:43.965Z,100121.24
2019-02-02T15:15:11.828Z,100122.06
2019-02-02T15:17:39.002Z,100124.57
2019-02-02T15:20:11.000Z,100133.23
2019-02-02T15:22:38.257Z,100138.25
2019-02-02T15:25:05.995Z,100146.91
2019-02-02T15:27:33.172Z,100147.56
2019-02-02T15:30:00.350Z,100156.06
2019-02-02T15:32:28.231Z,100157.28
2019-02-02T15:34:55.479Z,100161.58
2019-02-02T15:37:22.622Z,100159.39
2019-02-02T15:39:49.824Z,100165.78
2019-02-02T15:42:17.009Z,100170.48
2019-02-02T15:44:44.045Z,100174.69
2019-02-02T15:47:11.126Z,100179.86
2019-02-02T15:49:38.214Z,100192.33
2019-02-02T15:52:05.344Z,100195.80
2019-02-02T15:54:32.499Z,100203.57
2019-02-02T15:56:59.701Z,100213.84
2019-02-02T15:59:26.800Z,100217.24
2019-02-02T16:01:54.043Z,100216.77
2019-02-02T16:04:21.168Z,100223.55
2019-02-02T16:06:48.336Z,100230.52
2019-02-02T16:09:15.521Z,100229.22
2019-02-02T16:11:42.663Z,100231.73
2019-02-02T16:14:09.967Z,100238.60
2019-02-02T16:16:37.143Z,100239.09
2019-02-02T16:19:04.494Z,100246.37
2019-02-02T16:21:31.578Z,100252.03
2019-02-02T16:23:58.746Z,100252.03
2019-02-02T16:26:25.804Z,100258.98
2019-02-02T16:28:52.916Z,100265.45
2019-02-02T16:31:20.088Z,100268.45
2019-02-02T16:33:47.159Z,100267.08
2019-02-02T16:36:14.306Z,100271.44
2019-02-02T16:38:41.434Z,100276.62
2019-02-02T16:41:08.636Z,100278.72
2019-02-02T16:43:35.853Z,100282.61
2019-02-02T16:46:03.644Z,100291.66
2019-02-02T16:48:30.688Z,100305.91
2019-02-02T16:50:57.820Z,100317.55
2019-02-02T16:53:24.997Z,100325.16
2019-02-02T16:55:52.173Z,100332.52
2019-02-02T16:58:19.238Z,100340.78
2019-02-02T17:00:46.402Z,100349.03
2019-02-02T17:03:13.675Z,100351.62
2019-02-02T17:05:40.891Z,100369.50
2019-02-02T17:08:08.051Z,100375.97
2019-02-02T17:10:36.436Z,100379.86
2019-02-02T17:13:05.186Z,100385.61
2019-02-02T17:15:32.236Z,100386.50
2019-02-02T17:17:59.649Z,100388.69
2019-02-02T17:20:32.484Z,100392.66
2019-02-02T17:22:59.566Z,100394.44
2019-02-02T17:25:27.073Z,100398.00
2019-02-02T17:27:55.418Z,100398.00
2019-02-02T17:30:23.035Z,100405.68
2019-02-02T17:32:51.724Z,100416.13
2019-02-02T17:35:19.105Z,100417.91
2019-02-02T17:37:46.270Z,100428.27
2019-02-02T17:40:16.236Z,100432.64
2019-02-02T17:42:43.632Z,100440.89
2019-02-02T17:45:13.120Z,100449.15
2019-02-02T17:47:40.256Z,100453.52
2019-02-02T17:50:11.354Z,100460.48
2019-02-02T17:52:39.589Z,100470.52
2019-02-02T17:55:07.616Z,100476.28
2019-02-02T17:57:34.790Z,100480.56
2019-02-02T18:00:02.271Z,100484.94
2019-02-02T18:02:30.194Z,100488.02
2019-02-02T18:04:57.501Z,100491.98
2019-02-02T18:07:24.646Z,100500.16
2019-02-02T18:09:51.923Z,100501.13
2019-02-02T18:12:19.088Z,100507.20
2019-02-02T18:14:46.202Z,100515.87
2019-02-02T18:17:13.292Z,100515.47
2019-02-02T18:19:40.432Z,100517.16
2019-02-02T18:22:07.628Z,100517.66
2019-02-02T18:24:34.880Z,100529.31
2019-02-02T18:27:02.170Z,100533.28
2019-02-02T18:29:29.385Z,100540.56
2019-02-02T18:31:56.590Z,100544.94
2019-02-02T18:34:23.856Z,100552.39
2019-02-02T18:36:51.020Z,100555.87
2019-02-02T18:39:18.206Z,100564.62
2019-02-02T18:41:45.361Z,100561.72
2019-02-02T18:44:12.739Z,100566.49
2019-02-02T18:46:39.789Z,100570.06
2019-02-02T18:49:06.893Z,100575.24
2019-02-02T18:51:34.025Z,100584.40
2019-02-02T18:54:01.102Z,100598.33
2019-02-02T18:56:28.171Z,100608.38
2019-02-02T18:58:55.264Z,100603.20
2019-02-02T19:01:22.538Z,100612.44
2019-02-02T19:03:49.668Z,100626.38
2019-02-02T19:06:16.735Z,100632.36
2019-02-02T19:08:44.067Z,100630.27
2019-02-02T19:11:11.202Z,100645.00
2019-02-02T19:13:38.497Z,100654.28
2019-02-02T19:16:05.530Z,100653.47
2019-02-02T19:18:32.843Z,100656.95
2019-02-02T19:20:59.973Z,100664.82
2019-02-02T19:23:27.124Z,100670.90
2019-02-02T19:25:54.188Z,100665.62
2019-02-02T19:28:21.292Z,100674.37
2019-02-02T19:30:48.407Z,100671.07
2019-02-02T19:33:15.521Z,100679.83
2019-02-02T19:35:42.647Z,100678.45
2019-02-02T19:38:10.857Z,100682.33
2019-02-02T19:40:38.090Z,100683.14
2019-02-02T19:43:05.400Z,100689.13
2019-02-02T19:45:32.459Z,100696.09
2019-02-02T19:47:59.887Z,100706.15
2019-02-02T19:50:27.028Z,100714.81
2019-02-02T19:52:54.647Z,100717.09
2019-02-02T19:55:22.108Z,100723.09
2019-02-02T19:57:49.323Z,100729.97
2019-02-02T20:00:18.616Z,100733.05
2019-02-02T20:02:45.677Z,100744.71
2019-02-02T20:05:13.145Z,100748.59
2019-02-02T20:07:40.306Z,100746.09
2019-02-02T20:10:10.251Z,100735.33
2019-02-02T20:12:37.361Z,100740.02
2019-02-02T20:15:06.474Z,100738.41
2019-02-02T20:17:33.807Z,100740.69
2019-02-02T20:20:00.865Z,100753.16
2019-02-02T20:22:28.062Z,100757.13
2019-02-02T20:24:55.284Z,100765.31
2019-02-02T20:27:22.396Z,100772.20
2019-02-02T20:29:50.064Z,100776.98
2019-02-02T20:32:17.793Z,100776.17
2019-02-02T20:34:44.865Z,100782.66
2019-02-02T20:37:12.070Z,100787.84
2019-02-02T20:39:39.170Z,100791.73
2019-02-02T20:42:06.307Z,100793.83
2019-02-02T20:44:33.504Z,100796.42
2019-02-02T20:47:03.110Z,100806.79
2019-02-02T20:49:29.581Z,100801.83
2019-02-02T20:51:56.791Z,100809.29
2019-02-02T20:54:24.105Z,100816.98
2019-02-02T20:56:51.142Z,100819.56
2019-02-02T20:59:19.012Z,100822.56
2019-02-02T21:01:46.101Z,100831.14
2019-02-02T21:04:13.156Z,100826.84
2019-02-02T21:06:40.223Z,100834.94
2019-02-02T21:09:07.433Z,100841.42
2019-02-02T21:11:34.519Z,100847.49
2019-02-02T21:14:01.708Z,100852.59
2019-02-02T21:16:28.909Z,100860.36
2019-02-02T21:18:56.089Z,100865.15
2019-02-02T21:21:23.394Z,100869.44
2019-02-02T21:23:50.457Z,100878.51
2019-02-02T21:26:17.848Z,100880.61
2019-02-02T21:28:50.560Z,100900.05
2019-02-02T21:31:13.949Z,100906.03
2019-02-02T21:33:41.054Z,100912.11
2019-02-02T21:36:08.216Z,100916.40
2019-02-02T21:38:36.450Z,100922.88
2019-02-02T21:41:07.325Z,100924.17
2019-02-02T21:43:34.446Z,100931.45
2019-02-02T21:46:02.134Z,100935.34
2019-02-02T21:48:29.187Z,100933.95
2019-02-02T21:50:56.306Z,100937.44
2019-02-02T21:53:23.849Z,100943.23
2019-02-02T21:55:51.150Z,100946.72
2019-02-02T21:58:18.192Z,100952.21
2019-02-02T22:00:45.646Z,100962.75
2019-02-02T22:03:12.915Z,100966.75
2019-02-02T22:05:40.261Z,100971.16
2019-02-02T22:08:09.067Z,100974.25
2019-02-02T22:10:36.542Z,100979.64
2019-02-02T22:13:05.320Z,100988.61
2019-02-02T22:15:32.461Z,100992.30
2019-02-02T22:17:59.522Z,100996.49
2019-02-02T22:20:26.684Z,101007.25
2019-02-02T22:22:54.006Z,101017.81
2019-02-02T22:25:25.517Z,101025.19
2019-02-02T22:27:52.689Z,101036.44
2019-02-02T22:30:24.656Z,101033.45
2019-02-02T22:32:51.874Z,101036.94
2019-02-02T22:35:19.038Z,101040.83
2019-02-02T22:37:46.409Z,101042.52
2019-02-02T22:40:15.984Z,101048.50
2019-02-02T22:42:43.234Z,101043.22
2019-02-02T22:45:13.050Z,101041.83
2019-02-02T22:47:40.474Z,101045.31
2019-02-02T22:50:09.656Z,101049.00
2019-02-02T22:52:36.979Z,101057.06
2019-02-02T22:55:05.552Z,101058.36
2019-02-02T22:57:32.622Z,101072.11
2019-02-02T22:59:59.797Z,101078.88
2019-02-02T23:02:26.933Z,101074.89
2019-02-02T23:05:44.694Z,101083.56
2019-02-02T23:08:44.822Z,101084.75
2019-02-02T23:11:30.102Z,101094.02
2019-02-02T23:14:30.206Z,101100.98
2019-02-02T23:16:57.631Z,101106.16
2019-02-02T23:19:24.809Z,101104.87
2019-02-02T23:21:52.097Z,101118.61
2019-02-02T23:24:19.192Z,101116.32
2019-02-02T23:26:46.795Z,101130.16
2019-02-02T23:29:13.913Z,101143.39
2019-02-02T23:31:40.986Z,101149.07
2019-02-02T23:34:08.150Z,101161.22
2019-02-02T23:36:35.244Z,101163.02
2019-02-02T23:39:04.118Z,101154.85
2019-02-02T23:41:31.174Z,101164.92
2019-02-02T23:43:58.258Z,101166.31
2019-02-02T23:46:25.334Z,101168.11
2019-02-02T23:48:52.490Z,101170.70
2019-02-02T23:51:19.625Z,101177.57
2019-02-02T23:53:46.701Z,101188.83
2019-02-02T23:56:13.973Z,101188.33
2019-02-02T23:58:41.485Z,101188.22
